sensor_id;sensor_type;location;lat;lon;timestamp;temperature;humidity
45014;DHT22;30749;53.052;8.900;2022-07-01T00:02:22;22.50;51.90
45014;DHT22;30749;53.052;8.900;2022-07-01T00:04:54;22.70;53.40
45014;DHT22;30749;53.052;8.900;2022-07-01T00:07:41;22.80;48.90
45014;DHT22;30749;53.052;8.900;2022-07-01T00:10:10;23.10;47.00
45014;DHT22;30749;53.052;8.900;2022-07-01T00:12:41;23.00;45.60
45014;DHT22;30749;53.052;8.900;2022-07-01T00:15:07;22.90;47.80
45014;DHT22;30749;53.052;8.900;2022-07-01T00:17:33;22.90;45.30
45014;DHT22;30749;53.052;8.900;2022-07-01T00:20:06;22.80;42.30
45014;DHT22;30749;53.052;8.900;2022-07-01T00:22:33;22.60;47.60
45014;DHT22;30749;53.052;8.900;2022-07-01T00:25:01;22.60;48.20
45014;DHT22;30749;53.052;8.900;2022-07-01T00:27:45;22.60;48.00
45014;DHT22;30749;53.052;8.900;2022-07-01T00:30:36;22.60;47.50
45014;DHT22;30749;53.052;8.900;2022-07-01T00:33:05;22.30;51.20
45014;DHT22;30749;53.052;8.900;2022-07-01T00:35:31;22.40;49.30
45014;DHT22;30749;53.052;8.900;2022-07-01T00:37:57;22.50;47.10
45014;DHT22;30749;53.052;8.900;2022-07-01T00:40:25;22.30;51.20
45014;DHT22;30749;53.052;8.900;2022-07-01T00:42:51;22.30;51.70
45014;DHT22;30749;53.052;8.900;2022-07-01T00:45:17;22.40;47.30
45014;DHT22;30749;53.052;8.900;2022-07-01T00:47:46;22.40;44.40
45014;DHT22;30749;53.052;8.900;2022-07-01T00:50:13;22.40;42.50
45014;DHT22;30749;53.052;8.900;2022-07-01T00:52:41;22.40;41.40
45014;DHT22;30749;53.052;8.900;2022-07-01T00:55:08;22.40;40.20
45014;DHT22;30749;53.052;8.900;2022-07-01T00:57:36;22.10;41.10
45014;DHT22;30749;53.052;8.900;2022-07-01T01:00:18;22.10;43.60
45014;DHT22;30749;53.052;8.900;2022-07-01T01:02:44;22.00;41.50
45014;DHT22;30749;53.052;8.900;2022-07-01T01:05:10;21.80;43.30
45014;DHT22;30749;53.052;8.900;2022-07-01T01:07:37;21.80;40.10
45014;DHT22;30749;53.052;8.900;2022-07-01T01:10:02;21.70;41.00
45014;DHT22;30749;53.052;8.900;2022-07-01T01:12:28;21.40;48.00
45014;DHT22;30749;53.052;8.900;2022-07-01T01:14:57;21.20;55.60
45014;DHT22;30749;53.052;8.900;2022-07-01T01:17:23;21.30;52.70
45014;DHT22;30749;53.052;8.900;2022-07-01T01:19:50;21.40;50.70
45014;DHT22;30749;53.052;8.900;2022-07-01T01:22:17;21.60;43.80
45014;DHT22;30749;53.052;8.900;2022-07-01T01:24:45;21.70;40.00
45014;DHT22;30749;53.052;8.900;2022-07-01T01:27:11;21.70;39.60
45014;DHT22;30749;53.052;8.900;2022-07-01T01:29:38;21.70;39.00
45014;DHT22;30749;53.052;8.900;2022-07-01T01:32:06;21.80;38.00
45014;DHT22;30749;53.052;8.900;2022-07-01T01:34:33;21.80;35.50
45014;DHT22;30749;53.052;8.900;2022-07-01T01:37:03;21.80;34.70
45014;DHT22;30749;53.052;8.900;2022-07-01T01:39:29;21.70;34.60
45014;DHT22;30749;53.052;8.900;2022-07-01T01:41:55;21.70;34.90
45014;DHT22;30749;53.052;8.900;2022-07-01T01:44:20;21.60;34.70
45014;DHT22;30749;53.052;8.900;2022-07-01T01:46:46;21.70;35.10
45014;DHT22;30749;53.052;8.900;2022-07-01T01:49:11;21.70;34.40
45014;DHT22;30749;53.052;8.900;2022-07-01T01:51:37;21.70;35.30
45014;DHT22;30749;53.052;8.900;2022-07-01T01:54:06;21.50;37.20
45014;DHT22;30749;53.052;8.900;2022-07-01T01:56:31;21.40;37.40
45014;DHT22;30749;53.052;8.900;2022-07-01T01:58:57;21.40;37.40
45014;DHT22;30749;53.052;8.900;2022-07-01T02:01:29;21.40;37.10
45014;DHT22;30749;53.052;8.900;2022-07-01T02:03:55;21.30;42.00
45014;DHT22;30749;53.052;8.900;2022-07-01T02:06:21;21.00;45.70
45014;DHT22;30749;53.052;8.900;2022-07-01T02:08:47;21.10;40.70
45014;DHT22;30749;53.052;8.900;2022-07-01T02:11:13;20.80;43.60
45014;DHT22;30749;53.052;8.900;2022-07-01T02:13:38;20.70;40.40
45014;DHT22;30749;53.052;8.900;2022-07-01T02:16:04;20.40;49.50
45014;DHT22;30749;53.052;8.900;2022-07-01T02:18:30;20.20;49.40
45014;DHT22;30749;53.052;8.900;2022-07-01T02:20:56;20.10;58.40
45014;DHT22;30749;53.052;8.900;2022-07-01T02:23:23;20.10;49.20
45014;DHT22;30749;53.052;8.900;2022-07-01T02:25:49;20.20;45.10
45014;DHT22;30749;53.052;8.900;2022-07-01T02:28:16;20.10;43.50
45014;DHT22;30749;53.052;8.900;2022-07-01T02:30:41;20.10;42.20
45014;DHT22;30749;53.052;8.900;2022-07-01T02:33:07;20.10;41.40
45014;DHT22;30749;53.052;8.900;2022-07-01T02:35:34;20.20;42.40
45014;DHT22;30749;53.052;8.900;2022-07-01T02:38:00;20.30;39.30
45014;DHT22;30749;53.052;8.900;2022-07-01T02:40:26;20.30;35.60
45014;DHT22;30749;53.052;8.900;2022-07-01T02:42:59;20.30;36.20
45014;DHT22;30749;53.052;8.900;2022-07-01T02:45:25;20.20;36.30
45014;DHT22;30749;53.052;8.900;2022-07-01T02:47:53;20.10;37.70
45014;DHT22;30749;53.052;8.900;2022-07-01T02:50:18;19.90;43.20
45014;DHT22;30749;53.052;8.900;2022-07-01T02:52:47;19.80;49.10
45014;DHT22;30749;53.052;8.900;2022-07-01T02:55:13;19.80;48.90
45014;DHT22;30749;53.052;8.900;2022-07-01T02:57:40;19.90;45.30
45014;DHT22;30749;53.052;8.900;2022-07-01T03:00:11;20.00;44.90
45014;DHT22;30749;53.052;8.900;2022-07-01T03:02:37;20.00;40.30
45014;DHT22;30749;53.052;8.900;2022-07-01T03:05:03;20.10;41.90
45014;DHT22;30749;53.052;8.900;2022-07-01T03:07:29;20.00;44.80
45014;DHT22;30749;53.052;8.900;2022-07-01T03:09:54;20.00;42.00
45014;DHT22;30749;53.052;8.900;2022-07-01T03:12:20;19.80;42.50
45014;DHT22;30749;53.052;8.900;2022-07-01T03:14:46;19.90;42.40
45014;DHT22;30749;53.052;8.900;2022-07-01T03:17:11;20.10;41.50
45014;DHT22;30749;53.052;8.900;2022-07-01T03:19:37;20.10;38.70
45014;DHT22;30749;53.052;8.900;2022-07-01T03:22:05;19.90;35.80
45014;DHT22;30749;53.052;8.900;2022-07-01T03:24:34;19.90;35.80
45014;DHT22;30749;53.052;8.900;2022-07-01T03:26:59;19.90;34.00
45014;DHT22;30749;53.052;8.900;2022-07-01T03:29:27;19.80;34.70
45014;DHT22;30749;53.052;8.900;2022-07-01T03:31:53;19.70;35.10
45014;DHT22;30749;53.052;8.900;2022-07-01T03:34:18;19.80;34.30
45014;DHT22;30749;53.052;8.900;2022-07-01T03:36:44;19.90;31.80
45014;DHT22;30749;53.052;8.900;2022-07-01T03:39:12;19.90;30.60
45014;DHT22;30749;53.052;8.900;2022-07-01T03:41:37;20.10;27.70
45014;DHT22;30749;53.052;8.900;2022-07-01T03:44:03;19.90;28.80
45014;DHT22;30749;53.052;8.900;2022-07-01T03:46:29;19.80;29.70
45014;DHT22;30749;53.052;8.900;2022-07-01T03:48:55;19.80;28.70
45014;DHT22;30749;53.052;8.900;2022-07-01T03:51:21;19.90;27.50
45014;DHT22;30749;53.052;8.900;2022-07-01T03:53:47;19.90;27.90
45014;DHT22;30749;53.052;8.900;2022-07-01T03:56:22;19.90;27.90
45014;DHT22;30749;53.052;8.900;2022-07-01T03:58:47;19.60;30.00
45014;DHT22;30749;53.052;8.900;2022-07-01T04:01:13;19.50;31.20
45014;DHT22;30749;53.052;8.900;2022-07-01T04:03:41;19.30;32.80
45014;DHT22;30749;53.052;8.900;2022-07-01T04:06:10;19.40;34.10
45014;DHT22;30749;53.052;8.900;2022-07-01T04:08:44;19.40;33.20
45014;DHT22;30749;53.052;8.900;2022-07-01T04:11:10;19.50;29.40
45014;DHT22;30749;53.052;8.900;2022-07-01T04:13:39;19.60;25.60
45014;DHT22;30749;53.052;8.900;2022-07-01T04:16:05;19.40;28.40
45014;DHT22;30749;53.052;8.900;2022-07-01T04:18:31;19.30;29.10
45014;DHT22;30749;53.052;8.900;2022-07-01T04:20:59;19.30;29.80
45014;DHT22;30749;53.052;8.900;2022-07-01T04:23:25;19.30;31.40
45014;DHT22;30749;53.052;8.900;2022-07-01T04:25:51;19.20;28.20
45014;DHT22;30749;53.052;8.900;2022-07-01T04:28:22;19.30;27.10
45014;DHT22;30749;53.052;8.900;2022-07-01T04:30:48;19.50;26.60
45014;DHT22;30749;53.052;8.900;2022-07-01T04:33:16;19.40;27.70
45014;DHT22;30749;53.052;8.900;2022-07-01T04:35:44;19.40;29.80
45014;DHT22;30749;53.052;8.900;2022-07-01T04:38:10;19.60;30.00
45014;DHT22;30749;53.052;8.900;2022-07-01T04:40:41;19.50;29.20
45014;DHT22;30749;53.052;8.900;2022-07-01T04:43:10;19.60;30.60
45014;DHT22;30749;53.052;8.900;2022-07-01T04:45:36;19.30;31.30
45014;DHT22;30749;53.052;8.900;2022-07-01T04:48:09;19.10;35.20
45014;DHT22;30749;53.052;8.900;2022-07-01T04:50:35;19.10;34.80
45014;DHT22;30749;53.052;8.900;2022-07-01T04:53:01;19.20;35.20
45014;DHT22;30749;53.052;8.900;2022-07-01T04:55:26;19.20;36.70
45014;DHT22;30749;53.052;8.900;2022-07-01T04:57:52;19.10;35.10
45014;DHT22;30749;53.052;8.900;2022-07-01T05:00:21;19.20;32.60
45014;DHT22;30749;53.052;8.900;2022-07-01T05:02:47;19.20;35.20
45014;DHT22;30749;53.052;8.900;2022-07-01T05:05:14;19.30;35.30
45014;DHT22;30749;53.052;8.900;2022-07-01T05:07:40;19.20;30.00
45014;DHT22;30749;53.052;8.900;2022-07-01T05:10:09;19.30;30.70
45014;DHT22;30749;53.052;8.900;2022-07-01T05:12:35;19.10;32.30
45014;DHT22;30749;53.052;8.900;2022-07-01T05:15:01;19.30;33.80
45014;DHT22;30749;53.052;8.900;2022-07-01T05:17:30;19.50;28.50
45014;DHT22;30749;53.052;8.900;2022-07-01T05:19:56;19.40;26.80
45014;DHT22;30749;53.052;8.900;2022-07-01T05:22:24;19.40;27.20
45014;DHT22;30749;53.052;8.900;2022-07-01T05:24:50;19.40;27.00
45014;DHT22;30749;53.052;8.900;2022-07-01T05:27:16;19.30;26.80
45014;DHT22;30749;53.052;8.900;2022-07-01T05:29:42;19.40;28.50
45014;DHT22;30749;53.052;8.900;2022-07-01T05:32:10;19.30;26.80
45014;DHT22;30749;53.052;8.900;2022-07-01T05:34:36;19.40;28.10
45014;DHT22;30749;53.052;8.900;2022-07-01T05:37:05;19.50;26.90
45014;DHT22;30749;53.052;8.900;2022-07-01T05:39:34;19.50;24.10
45014;DHT22;30749;53.052;8.900;2022-07-01T05:42:02;19.60;24.20
45014;DHT22;30749;53.052;8.900;2022-07-01T05:44:28;19.40;24.00
45014;DHT22;30749;53.052;8.900;2022-07-01T05:46:57;19.50;24.10
45014;DHT22;30749;53.052;8.900;2022-07-01T05:49:22;19.70;22.80
45014;DHT22;30749;53.052;8.900;2022-07-01T05:51:48;19.70;23.10
45014;DHT22;30749;53.052;8.900;2022-07-01T05:54:19;19.70;22.50
45014;DHT22;30749;53.052;8.900;2022-07-01T05:56:44;19.60;20.90
45014;DHT22;30749;53.052;8.900;2022-07-01T05:59:10;19.70;20.10
45014;DHT22;30749;53.052;8.900;2022-07-01T06:01:35;19.60;21.20
45014;DHT22;30749;53.052;8.900;2022-07-01T06:04:04;19.60;20.00
45014;DHT22;30749;53.052;8.900;2022-07-01T06:06:30;19.50;20.10
45014;DHT22;30749;53.052;8.900;2022-07-01T06:08:57;19.50;20.50
45014;DHT22;30749;53.052;8.900;2022-07-01T06:11:24;19.60;22.20
45014;DHT22;30749;53.052;8.900;2022-07-01T06:13:49;19.60;17.90
45014;DHT22;30749;53.052;8.900;2022-07-01T06:16:17;19.40;18.60
45014;DHT22;30749;53.052;8.900;2022-07-01T06:18:43;19.50;19.50
45014;DHT22;30749;53.052;8.900;2022-07-01T06:21:09;19.60;18.80
45014;DHT22;30749;53.052;8.900;2022-07-01T06:23:37;19.60;18.30
45014;DHT22;30749;53.052;8.900;2022-07-01T06:26:03;19.40;18.50
45014;DHT22;30749;53.052;8.900;2022-07-01T06:28:29;19.50;19.30
45014;DHT22;30749;53.052;8.900;2022-07-01T06:30:57;19.70;18.70
45014;DHT22;30749;53.052;8.900;2022-07-01T06:33:23;19.80;16.90
45014;DHT22;30749;53.052;8.900;2022-07-01T06:35:49;20.00;15.50
45014;DHT22;30749;53.052;8.900;2022-07-01T06:38:14;20.10;14.60
45014;DHT22;30749;53.052;8.900;2022-07-01T06:40:40;20.20;14.70
45014;DHT22;30749;53.052;8.900;2022-07-01T06:43:06;20.10;12.80
45014;DHT22;30749;53.052;8.900;2022-07-01T06:45:35;20.00;13.60
45014;DHT22;30749;53.052;8.900;2022-07-01T06:48:00;19.80;12.50
45014;DHT22;30749;53.052;8.900;2022-07-01T06:50:28;19.70;12.90
45014;DHT22;30749;53.052;8.900;2022-07-01T06:52:54;19.60;13.00
45014;DHT22;30749;53.052;8.900;2022-07-01T06:55:20;19.70;12.70
45014;DHT22;30749;53.052;8.900;2022-07-01T06:57:45;19.50;13.60
45014;DHT22;30749;53.052;8.900;2022-07-01T07:00:12;19.50;13.40
45014;DHT22;30749;53.052;8.900;2022-07-01T07:02:38;19.50;14.20
45014;DHT22;30749;53.052;8.900;2022-07-01T07:05:04;19.50;13.50
45014;DHT22;30749;53.052;8.900;2022-07-01T07:07:33;19.60;13.50
45014;DHT22;30749;53.052;8.900;2022-07-01T07:09:59;19.50;12.30
45014;DHT22;30749;53.052;8.900;2022-07-01T07:12:28;19.60;10.10
45014;DHT22;30749;53.052;8.900;2022-07-01T07:14:54;19.40;10.90
45014;DHT22;30749;53.052;8.900;2022-07-01T07:17:19;19.50;11.70
45014;DHT22;30749;53.052;8.900;2022-07-01T07:19:45;19.60;11.50
45014;DHT22;30749;53.052;8.900;2022-07-01T07:22:10;19.80;10.40
45014;DHT22;30749;53.052;8.900;2022-07-01T07:24:36;19.70;9.70
45014;DHT22;30749;53.052;8.900;2022-07-01T07:27:10;19.60;10.90
45014;DHT22;30749;53.052;8.900;2022-07-01T07:29:36;19.80;12.40
45014;DHT22;30749;53.052;8.900;2022-07-01T07:32:04;20.00;11.70
45014;DHT22;30749;53.052;8.900;2022-07-01T07:34:30;20.20;11.20
45014;DHT22;30749;53.052;8.900;2022-07-01T07:36:55;20.40;7.60
45014;DHT22;30749;53.052;8.900;2022-07-01T07:39:24;20.50;7.30
45014;DHT22;30749;53.052;8.900;2022-07-01T07:41:49;20.50;7.80
45014;DHT22;30749;53.052;8.900;2022-07-01T07:44:18;20.50;5.60
45014;DHT22;30749;53.052;8.900;2022-07-01T07:46:43;20.40;5.50
45014;DHT22;30749;53.052;8.900;2022-07-01T07:49:09;20.30;5.50
45014;DHT22;30749;53.052;8.900;2022-07-01T07:51:37;20.30;5.50
45014;DHT22;30749;53.052;8.900;2022-07-01T07:54:03;20.30;5.50
45014;DHT22;30749;53.052;8.900;2022-07-01T07:56:29;20.30;5.50
45014;DHT22;30749;53.052;8.900;2022-07-01T07:58:56;20.20;5.40
45014;DHT22;30749;53.052;8.900;2022-07-01T08:01:22;20.10;5.90
45014;DHT22;30749;53.052;8.900;2022-07-01T08:03:53;20.20;5.40
45014;DHT22;30749;53.052;8.900;2022-07-01T08:06:25;20.20;7.60
45014;DHT22;30749;53.052;8.900;2022-07-01T08:08:51;20.30;9.00
45014;DHT22;30749;53.052;8.900;2022-07-01T08:11:24;20.20;8.10
45014;DHT22;30749;53.052;8.900;2022-07-01T08:13:50;20.10;10.20
45014;DHT22;30749;53.052;8.900;2022-07-01T08:16:15;20.10;7.70
45014;DHT22;30749;53.052;8.900;2022-07-01T08:18:41;20.10;7.90
45014;DHT22;30749;53.052;8.900;2022-07-01T08:21:09;19.90;7.90
45014;DHT22;30749;53.052;8.900;2022-07-01T08:23:38;19.80;9.70
45014;DHT22;30749;53.052;8.900;2022-07-01T08:26:04;19.80;10.60
45014;DHT22;30749;53.052;8.900;2022-07-01T08:28:32;19.90;11.70
45014;DHT22;30749;53.052;8.900;2022-07-01T08:30:58;19.80;10.30
45014;DHT22;30749;53.052;8.900;2022-07-01T08:33:31;19.90;14.20
45014;DHT22;30749;53.052;8.900;2022-07-01T08:35:57;19.90;10.60
45014;DHT22;30749;53.052;8.900;2022-07-01T08:38:22;20.10;13.70
45014;DHT22;30749;53.052;8.900;2022-07-01T08:40:48;20.20;11.40
45014;DHT22;30749;53.052;8.900;2022-07-01T08:43:23;20.20;13.40
45014;DHT22;30749;53.052;8.900;2022-07-01T08:45:48;20.20;12.00
45014;DHT22;30749;53.052;8.900;2022-07-01T08:48:16;20.20;12.00
45014;DHT22;30749;53.052;8.900;2022-07-01T08:50:41;20.20;12.40
45014;DHT22;30749;53.052;8.900;2022-07-01T08:53:11;19.90;9.00
45014;DHT22;30749;53.052;8.900;2022-07-01T08:55:37;19.70;14.20
45014;DHT22;30749;53.052;8.900;2022-07-01T08:58:02;19.80;16.10
45014;DHT22;30749;53.052;8.900;2022-07-01T09:00:31;19.60;13.90
45014;DHT22;30749;53.052;8.900;2022-07-01T09:02:57;19.60;14.30
45014;DHT22;30749;53.052;8.900;2022-07-01T09:05:27;19.70;16.10
45014;DHT22;30749;53.052;8.900;2022-07-01T09:07:57;19.80;14.40
45014;DHT22;30749;53.052;8.900;2022-07-01T09:10:25;19.80;14.40
45014;DHT22;30749;53.052;8.900;2022-07-01T09:13:05;19.70;13.70
45014;DHT22;30749;53.052;8.900;2022-07-01T09:15:33;19.40;15.00
45014;DHT22;30749;53.052;8.900;2022-07-01T09:18:03;19.40;14.80
45014;DHT22;30749;53.052;8.900;2022-07-01T09:20:29;19.60;16.60
45014;DHT22;30749;53.052;8.900;2022-07-01T09:28:16;19.10;16.40
45014;DHT22;30749;53.052;8.900;2022-07-01T09:31:13;19.40;14.20
45014;DHT22;30749;53.052;8.900;2022-07-01T09:33:38;19.60;14.30
45014;DHT22;30749;53.052;8.900;2022-07-01T09:36:06;19.80;10.50
45014;DHT22;30749;53.052;8.900;2022-07-01T09:38:32;20.00;9.90
45014;DHT22;30749;53.052;8.900;2022-07-01T09:40:58;19.90;9.20
45014;DHT22;30749;53.052;8.900;2022-07-01T09:43:31;20.20;8.90
45014;DHT22;30749;53.052;8.900;2022-07-01T09:46:01;20.20;7.60
45014;DHT22;30749;53.052;8.900;2022-07-01T09:51:00;20.20;5.40
45014;DHT22;30749;53.052;8.900;2022-07-01T09:53:26;20.20;4.90
45014;DHT22;30749;53.052;8.900;2022-07-01T09:55:55;20.20;5.30
45014;DHT22;30749;53.052;8.900;2022-07-01T09:58:23;20.30;3.80
45014;DHT22;30749;53.052;8.900;2022-07-01T10:00:49;20.20;2.80
45014;DHT22;30749;53.052;8.900;2022-07-01T10:03:17;20.10;1.50
45014;DHT22;30749;53.052;8.900;2022-07-01T10:14:04;20.30;5.50
45014;DHT22;30749;53.052;8.900;2022-07-01T10:16:33;20.20;3.00
45014;DHT22;30749;53.052;8.900;2022-07-01T10:21:50;20.00;4.50
45014;DHT22;30749;53.052;8.900;2022-07-01T10:24:19;20.00;4.20
45014;DHT22;30749;53.052;8.900;2022-07-01T10:26:45;19.80;3.50
45014;DHT22;30749;53.052;8.900;2022-07-01T10:32:25;20.00;3.20
45014;DHT22;30749;53.052;8.900;2022-07-01T10:35:07;19.80;3.50
45014;DHT22;30749;53.052;8.900;2022-07-01T10:37:55;19.90;3.90
45014;DHT22;30749;53.052;8.900;2022-07-01T10:40:43;19.70;4.80
45014;DHT22;30749;53.052;8.900;2022-07-01T10:43:08;19.70;5.10
45014;DHT22;30749;53.052;8.900;2022-07-01T10:45:40;19.80;4.30
45014;DHT22;30749;53.052;8.900;2022-07-01T10:48:39;20.10;3.80
45014;DHT22;30749;53.052;8.900;2022-07-01T10:51:08;20.30;2.80
45014;DHT22;30749;53.052;8.900;2022-07-01T10:53:48;20.30;1.00
45014;DHT22;30749;53.052;8.900;2022-07-01T10:56:17;20.40;1.20
45014;DHT22;30749;53.052;8.900;2022-07-01T10:58:42;20.50;1.20
45014;DHT22;30749;53.052;8.900;2022-07-01T11:01:08;20.70;1.00
45014;DHT22;30749;53.052;8.900;2022-07-01T11:03:37;21.00;1.00
45014;DHT22;30749;53.052;8.900;2022-07-01T11:06:06;21.00;1.00
45014;DHT22;30749;53.052;8.900;2022-07-01T11:08:32;20.90;1.00
45014;DHT22;30749;53.052;8.900;2022-07-01T11:10:58;20.80;1.00
45014;DHT22;30749;53.052;8.900;2022-07-01T11:13:26;21.30;1.00
45014;DHT22;30749;53.052;8.900;2022-07-01T11:15:53;21.90;1.00
45014;DHT22;30749;53.052;8.900;2022-07-01T11:18:22;22.40;1.00
45014;DHT22;30749;53.052;8.900;2022-07-01T11:20:51;22.90;1.00
45014;DHT22;30749;53.052;8.900;2022-07-01T11:23:17;23.30;1.00
45014;DHT22;30749;53.052;8.900;2022-07-01T11:25:45;23.70;1.00
45014;DHT22;30749;53.052;8.900;2022-07-01T11:28:11;24.10;1.00
45014;DHT22;30749;53.052;8.900;2022-07-01T11:30:39;24.70;1.00
45014;DHT22;30749;53.052;8.900;2022-07-01T11:33:08;24.50;1.00
45014;DHT22;30749;53.052;8.900;2022-07-01T11:35:34;24.50;1.00
45014;DHT22;30749;53.052;8.900;2022-07-01T11:38:19;24.40;1.00
45014;DHT22;30749;53.052;8.900;2022-07-01T11:40:49;24.40;1.00
45014;DHT22;30749;53.052;8.900;2022-07-01T11:43:34;24.60;1.00
45014;DHT22;30749;53.052;8.900;2022-07-01T11:46:02;24.60;1.00
45014;DHT22;30749;53.052;8.900;2022-07-01T11:48:55;24.70;1.00
45014;DHT22;30749;53.052;8.900;2022-07-01T11:51:25;24.60;1.00
45014;DHT22;30749;53.052;8.900;2022-07-01T11:53:58;24.80;1.00
45014;DHT22;30749;53.052;8.900;2022-07-01T11:56:34;24.90;1.00
45014;DHT22;30749;53.052;8.900;2022-07-01T11:58:59;24.90;1.00
45014;DHT22;30749;53.052;8.900;2022-07-01T12:01:36;25.10;1.00
45014;DHT22;30749;53.052;8.900;2022-07-01T12:04:06;25.10;1.00
45014;DHT22;30749;53.052;8.900;2022-07-01T12:06:33;25.00;1.00
45014;DHT22;30749;53.052;8.900;2022-07-01T12:08:59;25.00;1.00
45014;DHT22;30749;53.052;8.900;2022-07-01T12:11:28;25.10;1.00
45014;DHT22;30749;53.052;8.900;2022-07-01T12:13:55;25.00;1.00
45014;DHT22;30749;53.052;8.900;2022-07-01T12:16:42;24.90;1.00
45014;DHT22;30749;53.052;8.900;2022-07-01T12:19:14;24.60;1.00
45014;DHT22;30749;53.052;8.900;2022-07-01T12:21:58;25.00;1.00
45014;DHT22;30749;53.052;8.900;2022-07-01T12:24:24;25.00;1.00
45014;DHT22;30749;53.052;8.900;2022-07-01T12:29:28;24.80;1.00
45014;DHT22;30749;53.052;8.900;2022-07-01T12:32:03;24.60;1.00
45014;DHT22;30749;53.052;8.900;2022-07-01T12:37:37;24.10;1.00
45014;DHT22;30749;53.052;8.900;2022-07-01T12:40:30;24.00;1.00
45014;DHT22;30749;53.052;8.900;2022-07-01T12:42:59;23.70;1.00
45014;DHT22;30749;53.052;8.900;2022-07-01T12:45:28;23.60;1.00
45014;DHT22;30749;53.052;8.900;2022-07-01T12:48:03;23.80;1.00
45014;DHT22;30749;53.052;8.900;2022-07-01T12:50:30;23.90;1.00
45014;DHT22;30749;53.052;8.900;2022-07-01T12:53:25;23.70;1.00
45014;DHT22;30749;53.052;8.900;2022-07-01T12:55:57;23.40;1.00
45014;DHT22;30749;53.052;8.900;2022-07-01T12:58:27;23.50;1.00
45014;DHT22;30749;53.052;8.900;2022-07-01T13:00:54;23.80;1.00
45014;DHT22;30749;53.052;8.900;2022-07-01T13:03:20;24.20;1.00
45014;DHT22;30749;53.052;8.900;2022-07-01T13:05:46;24.30;1.00
45014;DHT22;30749;53.052;8.900;2022-07-01T13:08:21;24.20;1.00
45014;DHT22;30749;53.052;8.900;2022-07-01T13:10:47;24.10;1.00
45014;DHT22;30749;53.052;8.900;2022-07-01T13:13:15;23.90;1.00
45014;DHT22;30749;53.052;8.900;2022-07-01T13:15:41;23.70;1.00
45014;DHT22;30749;53.052;8.900;2022-07-01T13:18:07;23.60;1.00
45014;DHT22;30749;53.052;8.900;2022-07-01T13:20:34;23.70;1.00
45014;DHT22;30749;53.052;8.900;2022-07-01T13:23:00;23.40;1.00
45014;DHT22;30749;53.052;8.900;2022-07-01T13:25:26;23.60;1.00
45014;DHT22;30749;53.052;8.900;2022-07-01T13:27:52;23.90;1.00
45014;DHT22;30749;53.052;8.900;2022-07-01T13:30:21;24.20;1.00
45014;DHT22;30749;53.052;8.900;2022-07-01T13:32:49;24.70;1.00
45014;DHT22;30749;53.052;8.900;2022-07-01T13:35:18;24.20;1.00
45014;DHT22;30749;53.052;8.900;2022-07-01T13:37:44;23.90;1.00
45014;DHT22;30749;53.052;8.900;2022-07-01T13:40:10;23.70;1.00
45014;DHT22;30749;53.052;8.900;2022-07-01T13:42:38;23.70;1.00
45014;DHT22;30749;53.052;8.900;2022-07-01T13:45:04;23.30;1.00
45014;DHT22;30749;53.052;8.900;2022-07-01T13:50:36;23.10;1.00
45014;DHT22;30749;53.052;8.900;2022-07-01T13:53:04;22.90;1.00
45014;DHT22;30749;53.052;8.900;2022-07-01T13:55:33;22.80;1.00
45014;DHT22;30749;53.052;8.900;2022-07-01T13:57:58;22.80;1.00
45014;DHT22;30749;53.052;8.900;2022-07-01T14:00:24;22.90;1.00
45014;DHT22;30749;53.052;8.900;2022-07-01T14:02:53;22.80;1.00
45014;DHT22;30749;53.052;8.900;2022-07-01T14:05:21;22.80;1.00
45014;DHT22;30749;53.052;8.900;2022-07-01T14:07:50;23.00;1.00
45014;DHT22;30749;53.052;8.900;2022-07-01T14:10:36;23.10;1.00
45014;DHT22;30749;53.052;8.900;2022-07-01T14:13:05;23.20;1.00
45014;DHT22;30749;53.052;8.900;2022-07-01T14:15:31;23.30;1.00
45014;DHT22;30749;53.052;8.900;2022-07-01T14:17:57;23.40;1.00
45014;DHT22;30749;53.052;8.900;2022-07-01T14:20:25;23.70;1.00
45014;DHT22;30749;53.052;8.900;2022-07-01T14:22:52;24.60;1.00
45014;DHT22;30749;53.052;8.900;2022-07-01T14:25:17;26.20;1.00
45014;DHT22;30749;53.052;8.900;2022-07-01T14:27:46;27.80;1.00
45014;DHT22;30749;53.052;8.900;2022-07-01T14:30:15;27.00;1.00
45014;DHT22;30749;53.052;8.900;2022-07-01T14:32:45;29.20;1.00
45014;DHT22;30749;53.052;8.900;2022-07-01T14:35:11;30.10;1.00
45014;DHT22;30749;53.052;8.900;2022-07-01T14:37:41;31.00;1.00
45014;DHT22;30749;53.052;8.900;2022-07-01T14:40:12;31.50;1.00
45014;DHT22;30749;53.052;8.900;2022-07-01T14:42:40;31.50;1.00
45014;DHT22;30749;53.052;8.900;2022-07-01T14:45:07;31.70;1.00
45014;DHT22;30749;53.052;8.900;2022-07-01T14:47:50;31.30;1.00
45014;DHT22;30749;53.052;8.900;2022-07-01T14:50:19;28.90;1.00
45014;DHT22;30749;53.052;8.900;2022-07-01T14:52:45;27.50;1.00
45014;DHT22;30749;53.052;8.900;2022-07-01T14:55:14;27.50;1.00
45014;DHT22;30749;53.052;8.900;2022-07-01T14:57:41;27.80;1.00
45014;DHT22;30749;53.052;8.900;2022-07-01T15:00:10;28.10;1.00
45014;DHT22;30749;53.052;8.900;2022-07-01T15:02:39;28.10;1.00
45014;DHT22;30749;53.052;8.900;2022-07-01T15:05:14;28.20;1.00
45014;DHT22;30749;53.052;8.900;2022-07-01T15:08:14;28.10;1.00
45014;DHT22;30749;53.052;8.900;2022-07-01T15:10:40;26.80;1.00
45014;DHT22;30749;53.052;8.900;2022-07-01T15:13:09;26.80;1.00
45014;DHT22;30749;53.052;8.900;2022-07-01T15:15:35;26.20;1.00
45014;DHT22;30749;53.052;8.900;2022-07-01T15:18:03;26.30;1.00
45014;DHT22;30749;53.052;8.900;2022-07-01T15:20:29;26.50;1.00
45014;DHT22;30749;53.052;8.900;2022-07-01T15:22:58;26.70;1.00
45014;DHT22;30749;53.052;8.900;2022-07-01T15:25:24;26.80;1.00
45014;DHT22;30749;53.052;8.900;2022-07-01T15:27:54;26.60;1.00
45014;DHT22;30749;53.052;8.900;2022-07-01T15:30:22;26.20;1.00
45014;DHT22;30749;53.052;8.900;2022-07-01T15:32:51;25.80;1.00
45014;DHT22;30749;53.052;8.900;2022-07-01T15:35:17;25.70;1.00
45014;DHT22;30749;53.052;8.900;2022-07-01T15:37:46;25.70;1.00
45014;DHT22;30749;53.052;8.900;2022-07-01T15:40:12;25.60;1.00
45014;DHT22;30749;53.052;8.900;2022-07-01T15:42:40;25.40;1.00
45014;DHT22;30749;53.052;8.900;2022-07-01T15:45:09;25.20;1.00
45014;DHT22;30749;53.052;8.900;2022-07-01T15:47:35;25.20;1.00
45014;DHT22;30749;53.052;8.900;2022-07-01T15:50:04;25.10;1.00
45014;DHT22;30749;53.052;8.900;2022-07-01T15:52:34;25.20;1.00
45014;DHT22;30749;53.052;8.900;2022-07-01T15:55:05;25.30;1.00
45014;DHT22;30749;53.052;8.900;2022-07-01T15:57:36;25.20;1.00
45014;DHT22;30749;53.052;8.900;2022-07-01T16:00:12;24.80;1.00
45014;DHT22;30749;53.052;8.900;2022-07-01T16:02:38;24.70;1.00
45014;DHT22;30749;53.052;8.900;2022-07-01T16:05:04;24.60;1.00
45014;DHT22;30749;53.052;8.900;2022-07-01T16:07:30;24.80;1.00
45014;DHT22;30749;53.052;8.900;2022-07-01T16:10:07;24.80;1.00
45014;DHT22;30749;53.052;8.900;2022-07-01T16:12:42;25.10;1.00
45014;DHT22;30749;53.052;8.900;2022-07-01T16:15:12;25.40;1.00
45014;DHT22;30749;53.052;8.900;2022-07-01T16:17:38;25.20;1.00